Lindenwood, Illinois
Current Conditions -  °F | °C
As of 5:35 PM on Saturday 22 Nov 2014 (Local Time) from KRPJ Reporting Station
Overcast Overcast  
Wind Chill: 42°   Ceiling: 4700
Heat Index: 47°   Visibility: 7mi
Dew Point: 45°   Wind: 10mph
Humidity: 93%   Direction: 170°S
Pressure: 29.83"   Gusts: NA
Location:  42.05°N, 89.03°W
Report Text: KRPJ 222335Z AUTO 17009KT 7SM SCT024 SCT029 OVC047 08/07 A2983 RMK AO2 T00820071
Loading
Personal Weather Stations






























Interactive Weather Map New forecast layout! Learn more

10-Day Weather Forecast

Advertisements
Track Severe Weather on mobile